Flight Track Log - Related Links

Times and Time Zones

All times are in EDT time to prevent confusion due to time zone crossing. See the DAL1981 flight status page for this flight to view local times or setup timezone preferences in your user account.

Time Position Orientation Groundspeed Altitude Reporting Facility
EDT Latitude Longitude Course Direction KTS MPH feet Rate Location/Type
Fri 03:55:57 PM 38.7500 -121.5667 76° East 176 203 1,800  Level Northern Cal TRACON
Fri 03:56:51 PM 38.7333 -121.5000 108° East 271 312 3,200 2,316 Climbing Northern Cal TRACON
Fri 03:57:51 PM 38.7000 -121.4333 123° Southeast 271 312 6,200 2,850 Climbing Northern Cal TRACON
Fri 03:58:00 PM 38.5391 -121.0716 76° East  Level FlightAware Approximate
Fri 03:58:51 PM 38.7000 -121.3333 90° East 359 413 8,900  Level Northern Cal TRACON
Fri 03:59:00 PM 38.5689 -120.9040 78° East  Level FlightAware Approximate
Fri 03:59:51 PM 38.7000 -121.2167 90° East 301 346 10,900  Level Northern Cal TRACON
Fri 04:00:00 PM 38.5968 -120.7358 78° East  Level FlightAware Approximate
Fri 04:01:00 PM 38.6295 -120.5690 76° East  Level FlightAware Approximate
Fri 04:01:07 PM 38.7058 -121.0656 87° East 375 432 12,000  Level Oakland Center
Fri 04:02:09 PM 38.7089 -120.9203 88° East 402 463 14,100 1,854 Climbing Oakland Center
Fri 04:03:10 PM 38.7097 -120.7719 90° East 410 472 15,800 1,756 Climbing Oakland Center
Fri 04:04:12 PM 38.7131 -120.6156 88° East 429 494 17,700 1,756 Climbing Oakland Center
Fri 04:05:13 PM 38.7150 -120.4558 89° East 443 510 19,400 1,561 Climbing Oakland Center
Fri 04:06:15 PM 38.7172 -120.2919 89° East 455 524 20,900 1,366 Climbing Oakland Center
Fri 04:07:16 PM 38.7331 -120.1256 83° East 467 537 22,200 1,317 Climbing Oakland Center
Fri 04:08:18 PM 38.7747 -119.9264 75° East 479 551 23,600 1,073 Climbing Oakland Center
Fri 04:09:19 PM 38.8036 -119.7761 76° East 490 564 24,400 829 Climbing Oakland Center
Fri 04:10:21 PM 38.8953 -119.6425 49° Northeast 509 586 25,300 976 Climbing Oakland Center
Fri 04:11:22 PM 39.0394 -119.5197 33° Northeast 515 593 26,400 1,220 Climbing Oakland Center
Fri 04:12:24 PM 39.1592 -119.4181 33° Northeast 514 592 27,800 1,065 Climbing Oakland Center
Fri 04:13:26 PM 39.2797 -119.3156 33° Northeast 516 594 28,600 927 Climbing Oakland Center
Fri 04:14:27 PM 39.4003 -119.2108 34° Northeast 518 596 29,700 976 Climbing Oakland Center
Fri 04:15:29 PM 39.5214 -119.1072 33° Northeast 516 594 30,600 976 Climbing Oakland Center
Fri 04:16:30 PM 39.6431 -119.0017 34° Northeast 518 596 31,700 927 Climbing Oakland Center
Fri 04:17:32 PM 39.7639 -118.8964 34° Northeast 516 594 32,500 780 Climbing Oakland Center
Fri 04:18:33 PM 39.8833 -118.7911 34° Northeast 514 592 33,300 878 Climbing Oakland Center
Fri 04:19:35 PM 40.0031 -118.6853 34° Northeast 515 593 34,300 732 Climbing Oakland Center
Fri 04:20:36 PM 40.1003 -118.5519 46° Northeast 509 586 34,800 341 Climbing Oakland Center
Fri 04:21:38 PM 40.1650 -118.3814 64° Northeast 520 598 35,000 98 Climbing Oakland Center
Fri 04:22:39 PM 40.2317 -118.2133 63° Northeast 519 597 35,000  Level Oakland Center
Fri 04:23:40 PM 40.2989 -118.0439 62° Northeast 519 597 35,000  Level Salt Lake Center
Fri 04:24:42 PM 40.3714 -117.8558 63° Northeast 517 595 35,000  Level Salt Lake Center
Fri 04:25:44 PM 40.4356 -117.6950 62° Northeast 518 596 35,000  Level Salt Lake Center
Fri 04:26:46 PM 40.5072 -117.5042 64° Northeast 519 597 35,000  Level Salt Lake Center
Fri 04:27:48 PM 40.5700 -117.3400 63° Northeast 521 600 35,000  Level Salt Lake Center
Fri 04:28:50 PM 40.6442 -117.1481 63° Northeast 522 601 35,000  Level Salt Lake Center
Fri 04:29:52 PM 40.7069 -116.9822 63° Northeast 522 601 35,000  Level Salt Lake Center
Fri 04:30:54 PM 40.7681 -116.8164 64° Northeast 520 598 35,000  Level Salt Lake Center
Fri 04:31:56 PM 40.8403 -116.6236 64° Northeast 521 600 35,000  Level Salt Lake Center
Fri 04:32:58 PM 40.9017 -116.4578 64° Northeast 522 601 35,000  Level Salt Lake Center
Fri 04:33:59 PM 40.9733 -116.2656 64° Northeast 521 600 35,000  Level Salt Lake Center
Fri 04:35:01 PM 41.0350 -116.0986 64° Northeast 524 603 35,000  Level Salt Lake Center
Fri 04:36:03 PM 41.1042 -115.9031 65° Northeast 524 603 35,000  Level Salt Lake Center
Fri 04:37:05 PM 41.1656 -115.7364 64° Northeast 524 603 35,000  Level Salt Lake Center
Fri 04:38:07 PM 41.2250 -115.5681 65° Northeast 525 604 35,000  Level Salt Lake Center
Fri 04:39:09 PM 41.2944 -115.3714 65° Northeast 526 605 35,000  Level Salt Lake Center
Fri 04:40:11 PM 41.3553 -115.2044 64° Northeast 523 602 35,000  Level Salt Lake Center
Fri 04:41:12 PM 41.4242 -115.0069 65° Northeast 526 605 35,000  Level Salt Lake Center
Fri 04:42:14 PM 41.4836 -114.8361 65° Northeast 530 610 35,000  Level Salt Lake Center
Fri 04:43:16 PM 41.5514 -114.6397 65° Northeast 524 603 35,000  Level Salt Lake Center
Fri 04:44:18 PM 41.6133 -114.4633 65° Northeast 526 605 35,000  Level Salt Lake Center
Fri 04:45:20 PM 41.6733 -114.2861 66° East 524 603 35,000  Level Salt Lake Center
Fri 04:46:22 PM 41.7344 -114.1089 65° Northeast 525 604 35,000  Level Salt Lake Center
Fri 04:47:23 PM 41.7953 -113.9292 66° East 528 608 35,000  Level Salt Lake Center
Fri 04:48:25 PM 41.8561 -113.7492 66° East 529 609 35,000  Level Salt Lake Center
Fri 04:49:27 PM 41.9169 -113.5692 66° East 529 609 35,000  Level Salt Lake Center
Fri 04:50:29 PM 41.9889 -113.3508 66° East 532 612 35,000  Level Salt Lake Center
Fri 04:51:31 PM 42.0481 -113.1703 66° East 528 608 35,000  Level Salt Lake Center
Fri 04:52:33 PM 42.1086 -112.9886 66° East 530 610 35,000 -48 Level Salt Lake Center
Fri 04:53:35 PM 42.1678 -112.8069 66° East 529 609 34,900  Descending Salt Lake Center
Fri 04:54:36 PM 42.2269 -112.6239 66° East 532 612 35,000 49 Climbing Salt Lake Center
Fri 04:55:38 PM 42.2858 -112.4403 67° East 533 613 35,000  Level Salt Lake Center
Fri 04:56:40 PM 42.3447 -112.2550 67° East 535 616 35,000  Level Salt Lake Center
Fri 04:57:42 PM 42.4153 -112.0339 67° East 535 616 35,000  Level Salt Lake Center
Fri 04:58:44 PM 42.4733 -111.8489 67° East 534 615 35,000  Level Salt Lake Center
Fri 04:59:46 PM 42.5303 -111.6639 67° East 533 613 35,000  Level Salt Lake Center
Fri 05:00:48 PM 42.5886 -111.4781 67° East 534 615 35,000  Level Salt Lake Center
Fri 05:01:49 PM 42.6458 -111.2914 67° East 537 618 35,000 -49 Level Salt Lake Center
Fri 05:02:51 PM 42.7128 -111.0753 67° East 535 616 34,900  Descending Salt Lake Center
Fri 05:03:53 PM 42.7714 -110.8819 68° East 540 621 35,000 48 Climbing Salt Lake Center
Fri 05:04:55 PM 42.8197 -110.6989 70° East 539 620 35,000  Level Salt Lake Center
Fri 05:05:57 PM 42.8508 -110.5150 77° East 526 605 35,000  Level Salt Lake Center
Fri 05:06:59 PM 42.8894 -110.2969 76° East 530 610 35,000  Level Salt Lake Center
Fri 05:08:00 PM 42.9214 -110.1106 77° East 529 609 35,000  Level Salt Lake Center
Fri 05:09:02 PM 42.9589 -109.8906 77° East 533 613 35,000  Level Salt Lake Center
Fri 05:10:04 PM 42.9917 -109.7033 76° East 534 615 35,000 -48 Level Salt Lake Center
Fri 05:11:06 PM 43.0286 -109.4806 77° East 535 616 34,900  Descending Salt Lake Center
Fri 05:12:08 PM 43.0606 -109.2894 77° East 537 618 35,000 98 Climbing Salt Lake Center
Fri 05:13:09 PM 43.0969 -109.0689 77° East 536 617 35,100 -49 Climbing Salt Lake Center
Fri 05:14:11 PM 43.1258 -108.8883 78° East 520 598 34,900  Descending Salt Lake Center
Fri 05:15:13 PM 43.1614 -108.6722 77° East 521 600 35,100  Climbing Salt Lake Center
Fri 05:16:15 PM 43.1914 -108.4856 78° East 523 602 34,900  Descending Salt Lake Center
Fri 05:17:17 PM 43.2197 -108.3003 78° East 521 600 35,100  Climbing Salt Lake Center
Fri 05:18:19 PM 43.2533 -108.0833 78° East 520 598 34,900 -48 Descending Salt Lake Center
Fri 05:19:21 PM 43.2817 -107.8981 78° East 520 598 35,000 49 Climbing Salt Lake Center
Fri 05:20:22 PM 43.3106 -107.6897 79° East 523 602 35,000  Level Salt Lake Center
Fri 05:21:24 PM 43.3428 -107.4742 78° East 519 597 35,000  Level Salt Lake Center
Fri 05:22:26 PM 43.3700 -107.2881 79° East 521 600 35,000 48 Level Salt Lake Center
Fri 05:23:28 PM 43.3958 -107.1022 79° East 520 598 35,100  Climbing Salt Lake Center
Fri 05:23:58 PM 43.4122 -107.0033 77° East 516 594 35,000 -130 Descending Denver Center
Fri 05:25:00 PM 43.4428 -106.7906 79° East 509 586 34,900  Descending Denver Center
Fri 05:26:02 PM 43.4681 -106.6069 79° East 510 587 35,000 48 Climbing Denver Center
Fri 05:27:04 PM 43.4986 -106.3917 79° East 513 590 35,000  Level Denver Center
Fri 05:28:06 PM 43.5239 -106.2047 79° East 517 595 35,000 48 Level Denver Center
Fri 05:29:08 PM 43.5525 -105.9883 80° East 514 592 35,100  Climbing Denver Center
Fri 05:30:10 PM 43.5778 -105.8031 79° East 513 590 35,000 -48 Descending Denver Center
Fri 05:31:12 PM 43.6047 -105.5858 80° East 514 592 35,000  Level Denver Center
Fri 05:32:15 PM 43.6314 -105.3981 79° East 516 594 35,000  Level Denver Center
Fri 05:33:17 PM 43.6544 -105.2108 80° East 516 594 35,000  Level Denver Center
Fri 05:34:19 PM 43.6806 -104.9956 80° East 511 588 35,000  Level Denver Center
Fri 05:35:21 PM 43.7044 -104.8092 80° East 513 590 35,000  Level Denver Center
Fri 05:36:23 PM 43.7306 -104.5903 81° East 514 592 35,000 48 Level Denver Center
Fri 05:37:25 PM 43.7522 -104.4042 81° East 513 590 35,100  Climbing Denver Center
Fri 05:38:27 PM 43.7769 -104.1914 81° East 502 578 35,000 -48 Descending Denver Center
Fri 05:39:29 PM 43.7992 -104.0094 80° East 498 573 35,000 -48 Level Denver Center
Fri 05:40:31 PM 43.8233 -103.7944 81° East 504 580 34,900 -48 Descending Denver Center
Fri 05:41:33 PM 43.8433 -103.6083 81° East 509 586 34,900 48 Level Denver Center
Fri 05:42:35 PM 43.8689 -103.3903 81° East 514 592 35,000 97 Climbing Denver Center
Fri 05:43:37 PM 43.8900 -103.1992 81° East 520 598 35,100 48 Climbing Denver Center
Fri 05:44:39 PM 43.9111 -103.0097 81° East 520 598 35,100 -48 Level Denver Center
Fri 05:45:41 PM 43.9319 -102.8033 82° East 520 598 35,000 -48 Descending Denver Center
Fri 05:46:43 PM 43.9511 -102.6083 82° East 516 594 35,000  Level Denver Center
Fri 05:47:45 PM 43.9731 -102.3736 83° East 513 590 35,000  Level Denver Center
Fri 05:48:47 PM 43.9919 -102.1772 82° East 514 592 35,000  Level Denver Center
Fri 05:49:49 PM 44.0078 -101.9772 84° East 517 595 35,000  Level Denver Center
Fri 05:50:51 PM 44.0267 -101.7786 82° East 520 598 35,000 48 Level Denver Center
Fri 05:51:53 PM 44.0514 -101.5858 80° East 512 589 35,100  Climbing Denver Center
Fri 05:52:55 PM 44.0681 -101.3894 83° East 513 590 35,000 -48 Descending Denver Center
Fri 05:53:57 PM 44.0881 -101.1517 83° East 515 593 35,000  Level Minneapolis Center
Fri 05:54:59 PM 44.1056 -100.9553 83° East 515 593 35,000  Level Minneapolis Center
Fri 05:56:02 PM 44.1225 -100.7633 83° East 509 586 35,000  Level Minneapolis Center
Fri 05:57:04 PM 44.1397 -100.5719 83° East 504 580 35,000  Level Minneapolis Center
Fri 05:58:06 PM 44.1550 -100.3789 84° East 503 579 35,000  Level Minneapolis Center
Fri 05:59:08 PM 44.1714 -100.1864 83° East 505 581 35,000  Level Minneapolis Center
Fri 06:00:10 PM 44.1900 -99.9544 84° East 506 582 35,000  Level Minneapolis Center
Fri 06:01:12 PM 44.2056 -99.7603 84° East 508 585 35,000  Level Minneapolis Center
Fri 06:02:14 PM 44.2208 -99.5650 84° East 509 586 35,000  Level Minneapolis Center
Fri 06:03:16 PM 44.2364 -99.3700 84° East 510 587 35,000  Level Minneapolis Center
Fri 06:04:18 PM 44.2497 -99.1744 84° East 510 587 35,000  Level Minneapolis Center
Fri 06:05:20 PM 44.2669 -98.9403 84° East 509 586 35,000  Level Minneapolis Center
Fri 06:06:22 PM 44.2811 -98.7447 84° East 509 586 35,000  Level Minneapolis Center
Fri 06:07:24 PM 44.2928 -98.5461 85° East 514 592 35,000  Level Minneapolis Center
Fri 06:08:26 PM 44.3067 -98.3494 84° East 513 590 35,000  Level Minneapolis Center
Fri 06:09:28 PM 44.3194 -98.1269 85° East 512 589 35,000 -97 Level Minneapolis Center
Fri 06:10:30 PM 44.3314 -97.9292 85° East 513 590 34,800 -532 Descending Minneapolis Center
Fri 06:11:32 PM 44.3439 -97.7311 85° East 513 590 33,900 -919 Descending Minneapolis Center
Fri 06:12:34 PM 44.3544 -97.5333 86° East 512 589 32,900 -968 Descending Minneapolis Center
Fri 06:13:36 PM 44.3658 -97.3350 85° East 513 590 31,900 -919 Descending Minneapolis Center
Fri 06:14:38 PM 44.3769 -97.1383 85° East 510 587 31,000 -1,016 Descending Minneapolis Center
Fri 06:15:40 PM 44.3894 -96.9028 86° East 507 583 29,800 -968 Descending Minneapolis Center
Fri 06:16:42 PM 44.4000 -96.7047 86° East 509 586 29,000 -823 Descending Minneapolis Center
Fri 06:17:44 PM 44.4089 -96.5169 86° East 492 566 28,100 -919 Descending Minneapolis Center
Fri 06:18:46 PM 44.4175 -96.3333 86° East 470 541 27,100 -919 Descending Minneapolis Center
Fri 06:19:48 PM 44.4269 -96.1497 86° East 467 537 26,200 -919 Descending Minneapolis Center
Fri 06:20:50 PM 44.4353 -95.9672 86° East 467 537 25,200 -968 Descending Minneapolis Center
Fri 06:21:52 PM 44.4422 -95.7903 87° East 456 525 24,200 -581 Descending Minneapolis Center
Fri 06:22:54 PM 44.4494 -95.6178 87° East 445 512 24,000 -97 Descending Minneapolis Center
Fri 06:23:56 PM 44.4569 -95.4108 87° East 445 512 24,000  Level Minneapolis Center
Fri 06:24:58 PM 44.4639 -95.2367 87° East 447 514 24,000 -532 Level Minneapolis Center
Fri 06:26:00 PM 44.4814 -95.0658 82° East 444 511 22,900 -1,548 Descending Minneapolis Center
Fri 06:27:02 PM 44.5200 -94.9081 71° East 431 496 20,800 -1,984 Descending Minneapolis Center
Fri 06:28:04 PM 44.5564 -94.7550 72° East 420 483 18,800 -2,226 Descending Minneapolis Center
Fri 06:29:06 PM 44.5958 -94.5833 72° East 405 466 16,200 -2,226 Descending Minneapolis Center
Fri 06:30:08 PM 44.6294 -94.4397 72° East 390 449 14,200 -1,984 Descending Minneapolis Center
Fri 06:31:10 PM 44.6611 -94.2986 72° East 378 435 12,100 -1,548 Descending Minneapolis Center
Fri 06:32:12 PM 44.6922 -94.1644 72° East 359 413 11,000 -581 Descending Minneapolis Center
Fri 06:33:14 PM 44.7172 -94.0481 73° East 317 365 10,900 -677 Descending Minneapolis Center
Fri 06:34:16 PM 44.7614 -93.9442 59° Northeast 311 358 9,600 -1,597 Descending Minneapolis Center
Fri 06:35:18 PM 44.8239 -93.8247 54° Northeast 317 365 7,600 -1,248 Descending Minneapolis Center
Fri 06:36:21 PM 44.8753 -93.7286 53° Northeast 307 353 7,000 -288 Descending Minneapolis Center
Fri 06:37:23 PM 44.9194 -93.6464 53° Northeast 266 306 7,000 -726 Level Minneapolis Center
Fri 06:38:25 PM 44.9600 -93.5619 56° Northeast 260 299 5,500 -968 Descending Minneapolis Center
Fri 06:39:27 PM 44.9542 -93.4789 96° East 208 239 5,000 -484 Descending Minneapolis Center

Login

Don't have an account? Register now (free) for customized features, flight alerts, and more!